PWSweather.com
Personal Weather Stations
Station Observations
CANDIOTINO
Barrio Candioti Norte, Santa FeAR 3000

Barrio Candioti NorteSanta FeAR 3000

Lat: -31.632778, Lon: -60.695556

Elevation: 69

Station Type: WH-1081

http://www.eltiempoensantafe.com.ar

High Low Average
Temperature 93.0°F33.9°C 64.2°F17.9°C 77.8°F25.4°C
Dew Point 63.2°F17.3°C 54.0°F12.2°C 58.8°F14.9°C
Winds 8.3 mph 13.4 kmh 1.6 mph 2.6 kmh 4.0 mph NE6.4 kmh NE
Wind Gusts 15.9 mph25.6 kmh 5.4 mph8.7 kmh 9.0 mph14.5 kmh
Humidity 72% 34% 54%
Pressure 29.79 in1008.8 mb 29.55 in1000.7 mb -
Precipitation 0.00 in0.0 mm - -
Hour Temp Dew Point Humidity Winds Wind Gusts Pressure Precip Precip Rate Daily Precip Total
12:00 AM 70.2°F21.2°C 55.2°F12.9°C 59% 2.2 mph NE3.5 kmh NE 7.6 mph12.2 kmh 29.79 in1008.8 mb 0.00 in0.0 mm 0.00 in0.0 mm 0.00 in0.0 mm
12:15 AM 70.0°F21.1°C 54.6°F12.6°C 58% 5.4 mph NE8.7 kmh NE 9.2 mph14.8 kmh 29.79 in1008.8 mb 0.00 in0.0 mm 0.00 in0.0 mm 0.00 in0.0 mm
12:30 AM 69.6°F20.9°C 55.1°F12.8°C 60% 4.5 mph NNE7.2 kmh NNE 9.2 mph14.8 kmh 29.78 in1008.5 mb 0.00 in0.0 mm 0.00 in0.0 mm 0.00 in0.0 mm
12:45 AM 69.3°F20.7°C 55.3°F12.9°C 61% 3.8 mph NNE6.1 kmh NNE 8.3 mph13.4 kmh 29.78 in1008.5 mb 0.00 in0.0 mm 0.00 in0.0 mm 0.00 in0.0 mm
01:00 AM 68.9°F20.5°C 54.9°F12.7°C 61% 4.5 mph NNE7.2 kmh NNE 9.8 mph15.8 kmh 29.78 in1008.5 mb 0.00 in0.0 mm 0.00 in0.0 mm 0.00 in0.0 mm
01:15 AM 68.5°F20.3°C 55.5°F13.1°C 63% 3.1 mph NE5.0 kmh NE 9.8 mph15.8 kmh 29.78 in1008.5 mb 0.00 in0.0 mm 0.00 in0.0 mm 0.00 in0.0 mm
01:30 AM 68.2°F20.1°C 55.1°F12.8°C 63% 3.1 mph NNE5.0 kmh NNE 9.8 mph15.8 kmh 29.77 in1008.1 mb 0.00 in0.0 mm 0.00 in0.0 mm 0.00 in0.0 mm
01:45 AM 67.8°F19.9°C 55.6°F13.1°C 65% 4.5 mph NE7.2 kmh NE 9.8 mph15.8 kmh 29.77 in1008.1 mb 0.00 in0.0 mm 0.00 in0.0 mm 0.00 in0.0 mm
02:00 AM 67.5°F19.7°C 55.7°F13.2°C 66% 3.1 mph NE5.0 kmh NE 7.6 mph12.2 kmh 29.77 in1008.1 mb 0.00 in0.0 mm 0.00 in0.0 mm 0.00 in0.0 mm
02:15 AM 67.1°F19.5°C 55.8°F13.2°C 67% 3.1 mph NE5.0 kmh NE 6.9 mph11.1 kmh 29.76 in1007.8 mb 0.00 in0.0 mm 0.00 in0.0 mm 0.00 in0.0 mm
02:30 AM 66.9°F19.4°C 56.0°F13.3°C 68% 1.6 mph NE2.6 kmh NE 7.6 mph12.2 kmh 29.75 in1007.5 mb 0.00 in0.0 mm 0.00 in0.0 mm 0.00 in0.0 mm
02:45 AM 66.4°F19.1°C 55.5°F13.1°C 68% 2.2 mph NE3.5 kmh NE 6.9 mph11.1 kmh 29.75 in1007.5 mb 0.00 in0.0 mm 0.00 in0.0 mm 0.00 in0.0 mm
03:00 AM 66.4°F19.1°C 55.1°F12.8°C 67% 6.0 mph NE9.7 kmh NE 9.2 mph14.8 kmh 29.75 in1007.5 mb 0.00 in0.0 mm 0.00 in0.0 mm 0.00 in0.0 mm
03:15 AM 66.0°F18.9°C 55.2°F12.9°C 68% 3.8 mph NE6.1 kmh NE 6.0 mph9.7 kmh 29.74 in1007.1 mb 0.00 in0.0 mm 0.00 in0.0 mm 0.00 in0.0 mm
03:30 AM 65.5°F18.6°C 54.7°F12.6°C 68% 1.6 mph NE2.6 kmh NE 5.4 mph8.7 kmh 29.75 in1007.5 mb 0.00 in0.0 mm 0.00 in0.0 mm 0.00 in0.0 mm
03:45 AM 65.5°F18.6°C 55.1°F12.8°C 69% 2.2 mph NE3.5 kmh NE 6.9 mph11.1 kmh 29.74 in1007.1 mb 0.00 in0.0 mm 0.00 in0.0 mm 0.00 in0.0 mm
04:00 AM 65.7°F18.7°C 54.8°F12.7°C 68% 3.1 mph NE5.0 kmh NE 6.9 mph11.1 kmh 29.74 in1007.1 mb 0.00 in0.0 mm 0.00 in0.0 mm 0.00 in0.0 mm
04:15 AM 65.7°F18.7°C 55.2°F12.9°C 69% 2.2 mph NE3.5 kmh NE 6.9 mph11.1 kmh 29.73 in1006.8 mb 0.00 in0.0 mm 0.00 in0.0 mm 0.00 in0.0 mm
04:30 AM 65.3°F18.5°C 55.7°F13.2°C 71% 3.1 mph NE5.0 kmh NE 6.9 mph11.1 kmh 29.72 in1006.4 mb 0.00 in0.0 mm 0.00 in0.0 mm 0.00 in0.0 mm
04:45 AM 64.8°F18.2°C 55.2°F12.9°C 71% 3.1 mph ENE5.0 kmh ENE 6.9 mph11.1 kmh 29.72 in1006.4 mb 0.00 in0.0 mm 0.00 in0.0 mm 0.00 in0.0 mm
05:00 AM 64.8°F18.2°C 55.5°F13.1°C 72% 2.2 mph NE3.5 kmh NE 6.9 mph11.1 kmh 29.73 in1006.8 mb 0.00 in0.0 mm 0.00 in0.0 mm 0.00 in0.0 mm
05:15 AM 64.9°F18.3°C 55.3°F12.9°C 71% 3.8 mph NE6.1 kmh NE 6.0 mph9.7 kmh 29.72 in1006.4 mb 0.00 in0.0 mm 0.00 in0.0 mm 0.00 in0.0 mm
05:30 AM 65.1°F18.4°C 55.1°F12.8°C 70% 3.8 mph NE6.1 kmh NE 6.0 mph9.7 kmh 29.72 in1006.4 mb 0.00 in0.0 mm 0.00 in0.0 mm 0.00 in0.0 mm
05:45 AM 65.3°F18.5°C 54.9°F12.7°C 69% 1.6 mph NE2.6 kmh NE 6.9 mph11.1 kmh 29.72 in1006.4 mb 0.00 in0.0 mm 0.00 in0.0 mm 0.00 in0.0 mm
06:00 AM 65.1°F18.4°C 54.7°F12.6°C 69% 1.6 mph NE2.6 kmh NE 5.4 mph8.7 kmh 29.72 in1006.4 mb 0.00 in0.0 mm 0.00 in0.0 mm 0.00 in0.0 mm
06:15 AM 64.8°F18.2°C 54.8°F12.7°C 70% 5.4 mph NNE8.7 kmh NNE 6.0 mph9.7 kmh 29.73 in1006.8 mb 0.00 in0.0 mm 0.00 in0.0 mm 0.00 in0.0 mm
06:30 AM 64.4°F18.0°C 54.0°F12.2°C 69% 3.1 mph NE5.0 kmh NE 6.9 mph11.1 kmh 29.73 in1006.8 mb 0.00 in0.0 mm 0.00 in0.0 mm 0.00 in0.0 mm
06:45 AM 64.2°F17.9°C 54.6°F12.6°C 71% 2.2 mph NE3.5 kmh NE 5.4 mph8.7 kmh 29.73 in1006.8 mb 0.00 in0.0 mm 0.00 in0.0 mm 0.00 in0.0 mm
07:00 AM 64.4°F18.0°C 54.8°F12.7°C 71% 2.2 mph NE3.5 kmh NE 6.0 mph9.7 kmh 29.74 in1007.1 mb 0.00 in0.0 mm 0.00 in0.0 mm 0.00 in0.0 mm
07:15 AM 65.3°F18.5°C 55.7°F13.2°C 71% 1.6 mph NE2.6 kmh NE 6.9 mph11.1 kmh 29.74 in1007.1 mb 0.00 in0.0 mm 0.00 in0.0 mm 0.00 in0.0 mm
07:30 AM 65.5°F18.6°C 56.2°F13.4°C 72% 3.1 mph NE5.0 kmh NE 6.9 mph11.1 kmh 29.74 in1007.1 mb 0.00 in0.0 mm 0.00 in0.0 mm 0.00 in0.0 mm
07:45 AM 66.7°F19.3°C 56.7°F13.7°C 70% 3.1 mph NNE5.0 kmh NNE 5.4 mph8.7 kmh 29.75 in1007.5 mb 0.00 in0.0 mm 0.00 in0.0 mm 0.00 in0.0 mm
08:00 AM 68.5°F20.3°C 55.9°F13.3°C 64% 3.1 mph N5.0 kmh N 8.3 mph13.4 kmh 29.75 in1007.5 mb 0.00 in0.0 mm 0.00 in0.0 mm 0.00 in0.0 mm
08:15 AM 69.4°F20.8°C 56.3°F13.5°C 63% 3.1 mph NNE5.0 kmh NNE 7.6 mph12.2 kmh 29.75 in1007.5 mb 0.00 in0.0 mm 0.00 in0.0 mm 0.00 in0.0 mm
08:30 AM 70.2°F21.2°C 56.1°F13.4°C 61% 2.2 mph NNE3.5 kmh NNE 7.6 mph12.2 kmh 29.75 in1007.5 mb 0.00 in0.0 mm 0.00 in0.0 mm 0.00 in0.0 mm
08:45 AM 71.1°F21.7°C 56.5°F13.6°C 60% 4.5 mph N7.2 kmh N 10.7 mph17.2 kmh 29.76 in1007.8 mb 0.00 in0.0 mm 0.00 in0.0 mm 0.00 in0.0 mm
09:00 AM 72.0°F22.2°C 56.9°F13.8°C 59% 1.6 mph NNE2.6 kmh NNE 8.3 mph13.4 kmh 29.75 in1007.5 mb 0.00 in0.0 mm 0.00 in0.0 mm 0.00 in0.0 mm
09:15 AM 73.8°F23.2°C 57.6°F14.2°C 57% 2.2 mph ENE3.5 kmh ENE 7.6 mph12.2 kmh 29.75 in1007.5 mb 0.00 in0.0 mm 0.00 in0.0 mm 0.00 in0.0 mm
09:30 AM 75.0°F23.9°C 58.3°F14.6°C 56% 3.8 mph NE6.1 kmh NE 7.6 mph12.2 kmh 29.75 in1007.5 mb 0.00 in0.0 mm 0.00 in0.0 mm 0.00 in0.0 mm
09:45 AM 76.8°F24.9°C 59.0°F15.0°C 54% 3.8 mph ENE6.1 kmh ENE 6.0 mph9.7 kmh 29.75 in1007.5 mb 0.00 in0.0 mm 0.00 in0.0 mm 0.00 in0.0 mm
10:00 AM 77.7°F25.4°C 59.3°F15.2°C 53% 2.2 mph E3.5 kmh E 6.9 mph11.1 kmh 29.75 in1007.5 mb 0.00 in0.0 mm 0.00 in0.0 mm 0.00 in0.0 mm
10:15 AM 79.0°F26.1°C 58.8°F14.9°C 50% 3.1 mph NNE5.0 kmh NNE 7.6 mph12.2 kmh 29.75 in1007.5 mb 0.00 in0.0 mm 0.00 in0.0 mm 0.00 in0.0 mm
10:30 AM 79.2°F26.2°C 58.4°F14.7°C 49% 5.4 mph NE8.7 kmh NE 10.7 mph17.2 kmh 29.74 in1007.1 mb 0.00 in0.0 mm 0.00 in0.0 mm 0.00 in0.0 mm
10:45 AM 80.1°F26.7°C 59.2°F15.1°C 49% 2.2 mph NE3.5 kmh NE 8.3 mph13.4 kmh 29.74 in1007.1 mb 0.00 in0.0 mm 0.00 in0.0 mm 0.00 in0.0 mm
11:00 AM 81.3°F27.4°C 59.2°F15.1°C 47% 3.8 mph NNE6.1 kmh NNE 9.2 mph14.8 kmh 29.74 in1007.1 mb 0.00 in0.0 mm 0.00 in0.0 mm 0.00 in0.0 mm
11:15 AM 81.5°F27.5°C 59.4°F15.2°C 47% 4.5 mph NNE7.2 kmh NNE 9.8 mph15.8 kmh 29.73 in1006.8 mb 0.00 in0.0 mm 0.00 in0.0 mm 0.00 in0.0 mm
11:30 AM 83.7°F28.7°C 60.7°F15.9°C 46% 5.4 mph NE8.7 kmh NE 8.3 mph13.4 kmh 29.73 in1006.8 mb 0.00 in0.0 mm 0.00 in0.0 mm 0.00 in0.0 mm
11:45 AM 84.9°F29.4°C 60.6°F15.9°C 44% 3.1 mph NE5.0 kmh NE 9.8 mph15.8 kmh 29.72 in1006.4 mb 0.00 in0.0 mm 0.00 in0.0 mm 0.00 in0.0 mm
12:00 PM 85.8°F29.9°C 61.4°F16.3°C 44% 3.1 mph NNE5.0 kmh NNE 11.4 mph18.3 kmh 29.72 in1006.4 mb 0.00 in0.0 mm 0.00 in0.0 mm 0.00 in0.0 mm
12:15 PM 87.1°F30.6°C 61.9°F16.6°C 43% 5.4 mph NE8.7 kmh NE 9.2 mph14.8 kmh 29.72 in1006.4 mb 0.00 in0.0 mm 0.00 in0.0 mm 0.00 in0.0 mm
12:30 PM 86.7°F30.4°C 61.6°F16.4°C 43% 6.0 mph N9.7 kmh N 9.8 mph15.8 kmh 29.71 in1006.1 mb 0.00 in0.0 mm 0.00 in0.0 mm 0.00 in0.0 mm
12:45 PM 88.0°F31.1°C 62.1°F16.7°C 42% 7.6 mph NNE12.2 kmh NNE 11.4 mph18.3 kmh 29.70 in1005.8 mb 0.00 in0.0 mm 0.00 in0.0 mm 0.00 in0.0 mm
01:00 PM 88.0°F31.1°C 61.4°F16.3°C 41% 5.4 mph N8.7 kmh N 11.4 mph18.3 kmh 29.70 in1005.8 mb 0.00 in0.0 mm 0.00 in0.0 mm 0.00 in0.0 mm
01:15 PM 89.1°F31.7°C 62.4°F16.9°C 41% 6.0 mph NE9.7 kmh NE 13.0 mph20.9 kmh 29.68 in1005.1 mb 0.00 in0.0 mm 0.00 in0.0 mm 0.00 in0.0 mm
01:30 PM 89.6°F32.0°C 59.9°F15.5°C 37% 6.9 mph NNE11.1 kmh NNE 11.4 mph18.3 kmh 29.68 in1005.1 mb 0.00 in0.0 mm 0.00 in0.0 mm 0.00 in0.0 mm
01:45 PM 90.3°F32.4°C 59.8°F15.4°C 36% 7.6 mph N12.2 kmh N 14.5 mph23.3 kmh 29.67 in1004.7 mb 0.00 in0.0 mm 0.00 in0.0 mm 0.00 in0.0 mm
02:00 PM 90.7°F32.6°C 58.5°F14.7°C 34% 6.9 mph NE11.1 kmh NE 13.0 mph20.9 kmh 29.65 in1004.1 mb 0.00 in0.0 mm 0.00 in0.0 mm 0.00 in0.0 mm
02:15 PM 91.2°F32.9°C 59.0°F15.0°C 34% 6.9 mph NE11.1 kmh NE 15.2 mph24.5 kmh 29.64 in1003.7 mb 0.00 in0.0 mm 0.00 in0.0 mm 0.00 in0.0 mm
02:30 PM 92.1°F33.4°C 61.4°F16.3°C 36% 6.0 mph NE9.7 kmh NE 15.2 mph24.5 kmh 29.64 in1003.7 mb 0.00 in0.0 mm 0.00 in0.0 mm 0.00 in0.0 mm
02:45 PM 91.8°F33.2°C 60.3°F15.7°C 35% 6.9 mph NNE11.1 kmh NNE 15.2 mph24.5 kmh 29.63 in1003.4 mb 0.00 in0.0 mm 0.00 in0.0 mm 0.00 in0.0 mm
03:00 PM 92.3°F33.5°C 60.8°F16.0°C 35% 8.3 mph NNE13.4 kmh NNE 13.6 mph21.9 kmh 29.62 in1003.0 mb 0.00 in0.0 mm 0.00 in0.0 mm 0.00 in0.0 mm
03:15 PM 93.0°F33.9°C 61.4°F16.3°C 35% 8.3 mph ENE13.4 kmh ENE 13.6 mph21.9 kmh 29.61 in1002.7 mb 0.00 in0.0 mm 0.00 in0.0 mm 0.00 in0.0 mm
03:30 PM 92.8°F33.8°C 61.2°F16.2°C 35% 7.6 mph NE12.2 kmh NE 15.2 mph24.5 kmh 29.61 in1002.7 mb 0.00 in0.0 mm 0.00 in0.0 mm 0.00 in0.0 mm
03:45 PM 92.7°F33.7°C 61.1°F16.2°C 35% 3.8 mph NNE6.1 kmh NNE 13.6 mph21.9 kmh 29.60 in1002.4 mb 0.00 in0.0 mm 0.00 in0.0 mm 0.00 in0.0 mm
04:00 PM 92.7°F33.7°C 61.1°F16.2°C 35% 8.3 mph NNE13.4 kmh NNE 15.9 mph25.6 kmh 29.59 in1002.0 mb 0.00 in0.0 mm 0.00 in0.0 mm 0.00 in0.0 mm
04:15 PM 93.0°F33.9°C 62.2°F16.8°C 36% 7.6 mph NE12.2 kmh NE 13.0 mph20.9 kmh 29.59 in1002.0 mb 0.00 in0.0 mm 0.00 in0.0 mm 0.00 in0.0 mm
04:30 PM 92.3°F33.5°C 62.3°F16.8°C 37% 6.9 mph NNE11.1 kmh NNE 15.9 mph25.6 kmh 29.58 in1001.7 mb 0.00 in0.0 mm 0.00 in0.0 mm 0.00 in0.0 mm
04:45 PM 92.3°F33.5°C 63.1°F17.3°C 38% 3.8 mph NNE6.1 kmh NNE 13.0 mph20.9 kmh 29.58 in1001.7 mb 0.00 in0.0 mm 0.00 in0.0 mm 0.00 in0.0 mm
05:00 PM 92.1°F33.4°C 62.9°F17.2°C 38% 5.4 mph NE8.7 kmh NE 11.4 mph18.3 kmh 29.57 in1001.4 mb 0.00 in0.0 mm 0.00 in0.0 mm 0.00 in0.0 mm
05:15 PM 90.5°F32.5°C 61.5°F16.4°C 38% 8.3 mph NNE13.4 kmh NNE 12.1 mph19.5 kmh 29.57 in1001.4 mb 0.00 in0.0 mm 0.00 in0.0 mm 0.00 in0.0 mm
05:30 PM 90.3°F32.4°C 62.1°F16.7°C 39% 3.8 mph NE6.1 kmh NE 10.7 mph17.2 kmh 29.56 in1001.0 mb 0.00 in0.0 mm 0.00 in0.0 mm 0.00 in0.0 mm
05:45 PM 89.8°F32.1°C 63.0°F17.2°C 41% 6.9 mph NE11.1 kmh NE 13.6 mph21.9 kmh 29.56 in1001.0 mb 0.00 in0.0 mm 0.00 in0.0 mm 0.00 in0.0 mm
06:00 PM 89.2°F31.8°C 63.2°F17.3°C 42% 4.5 mph NE7.2 kmh NE 11.4 mph18.3 kmh 29.56 in1001.0 mb 0.00 in0.0 mm 0.00 in0.0 mm 0.00 in0.0 mm
06:15 PM 89.1°F31.7°C 63.0°F17.2°C 42% 1.6 mph N2.6 kmh N 8.3 mph13.4 kmh 29.55 in1000.7 mb 0.00 in0.0 mm 0.00 in0.0 mm 0.00 in0.0 mm
06:30 PM 87.8°F31.0°C 61.9°F16.6°C 42% 4.5 mph NE7.2 kmh NE 9.2 mph14.8 kmh 29.55 in1000.7 mb 0.00 in0.0 mm 0.00 in0.0 mm 0.00 in0.0 mm
06:45 PM 86.5°F30.3°C 62.1°F16.7°C 44% 4.5 mph N7.2 kmh N 8.3 mph13.4 kmh 29.56 in1001.0 mb 0.00 in0.0 mm 0.00 in0.0 mm 0.00 in0.0 mm
07:00 PM 84.7°F29.3°C 61.7°F16.5°C 46% 2.2 mph NE3.5 kmh NE 9.2 mph14.8 kmh 29.56 in1001.0 mb 0.00 in0.0 mm 0.00 in0.0 mm 0.00 in0.0 mm
07:15 PM 83.7°F28.7°C 61.9°F16.6°C 48% 3.1 mph NNE5.0 kmh NNE 7.6 mph12.2 kmh 29.55 in1000.7 mb 0.00 in0.0 mm 0.00 in0.0 mm 0.00 in0.0 mm
07:30 PM 82.8°F28.2°C 61.7°F16.5°C 49% 3.1 mph ENE5.0 kmh ENE 8.3 mph13.4 kmh 29.55 in1000.7 mb 0.00 in0.0 mm 0.00 in0.0 mm 0.00 in0.0 mm
07:45 PM 82.2°F27.9°C 62.3°F16.8°C 51% 2.2 mph NE3.5 kmh NE 7.6 mph12.2 kmh 29.55 in1000.7 mb 0.00 in0.0 mm 0.00 in0.0 mm 0.00 in0.0 mm
08:00 PM 82.2°F27.9°C 61.8°F16.6°C 50% 2.2 mph NE3.5 kmh NE 8.3 mph13.4 kmh 29.55 in1000.7 mb 0.00 in0.0 mm 0.00 in0.0 mm 0.00 in0.0 mm
08:15 PM 82.6°F28.1°C 61.5°F16.4°C 49% 3.8 mph NE6.1 kmh NE 9.2 mph14.8 kmh 29.55 in1000.7 mb 0.00 in0.0 mm 0.00 in0.0 mm 0.00 in0.0 mm
08:30 PM 81.9°F27.7°C 62.0°F16.7°C 51% 3.1 mph NE5.0 kmh NE 8.3 mph13.4 kmh 29.56 in1001.0 mb 0.00 in0.0 mm 0.00 in0.0 mm 0.00 in0.0 mm
08:45 PM 80.8°F27.1°C 62.1°F16.7°C 53% 4.5 mph ENE7.2 kmh ENE 9.2 mph14.8 kmh 29.55 in1000.7 mb 0.00 in0.0 mm 0.00 in0.0 mm 0.00 in0.0 mm
09:00 PM 80.4°F26.9°C 62.3°F16.8°C 54% 2.2 mph NE3.5 kmh NE 9.2 mph14.8 kmh 29.56 in1001.0 mb 0.00 in0.0 mm 0.00 in0.0 mm 0.00 in0.0 mm
09:15 PM 79.7°F26.5°C 62.7°F17.1°C 56% 3.8 mph NE6.1 kmh NE 7.6 mph12.2 kmh 29.56 in1001.0 mb 0.00 in0.0 mm 0.00 in0.0 mm 0.00 in0.0 mm
09:30 PM 79.5°F26.4°C 62.5°F16.9°C 56% 4.5 mph NE7.2 kmh NE 9.2 mph14.8 kmh 29.57 in1001.4 mb 0.00 in0.0 mm 0.00 in0.0 mm 0.00 in0.0 mm
09:45 PM 79.2°F26.2°C 61.6°F16.4°C 55% 5.4 mph NE8.7 kmh NE 9.8 mph15.8 kmh 29.56 in1001.0 mb 0.00 in0.0 mm 0.00 in0.0 mm 0.00 in0.0 mm
10:00 PM 78.3°F25.7°C 61.8°F16.6°C 57% 2.2 mph NE3.5 kmh NE 8.3 mph13.4 kmh 29.57 in1001.4 mb 0.00 in0.0 mm 0.00 in0.0 mm 0.00 in0.0 mm
10:15 PM 78.1°F25.6°C 61.1°F16.2°C 56% 3.1 mph NNE5.0 kmh NNE 7.6 mph12.2 kmh 29.57 in1001.4 mb 0.00 in0.0 mm 0.00 in0.0 mm 0.00 in0.0 mm
10:30 PM 77.4°F25.2°C 60.0°F15.6°C 55% 4.5 mph NE7.2 kmh NE 9.8 mph15.8 kmh 29.57 in1001.4 mb 0.00 in0.0 mm 0.00 in0.0 mm 0.00 in0.0 mm
10:45 PM 77.0°F25.0°C 59.6°F15.3°C 55% 3.8 mph NE6.1 kmh NE 11.4 mph18.3 kmh 29.57 in1001.4 mb 0.00 in0.0 mm 0.00 in0.0 mm 0.00 in0.0 mm
11:00 PM 76.5°F24.7°C 59.1°F15.1°C 55% 4.5 mph NE7.2 kmh NE 10.7 mph17.2 kmh 29.58 in1001.7 mb 0.00 in0.0 mm 0.00 in0.0 mm 0.00 in0.0 mm
11:15 PM 76.1°F24.5°C 58.3°F14.6°C 54% 3.8 mph NNE6.1 kmh NNE 9.2 mph14.8 kmh 29.57 in1001.4 mb 0.00 in0.0 mm 0.00 in0.0 mm 0.00 in0.0 mm
11:30 PM 75.7°F24.3°C 57.9°F14.4°C 54% 2.2 mph NE3.5 kmh NE 9.8 mph15.8 kmh 29.57 in1001.4 mb 0.00 in0.0 mm 0.00 in0.0 mm 0.00 in0.0 mm
11:45 PM 75.2°F24.0°C 57.4°F14.1°C 54% 5.4 mph NE8.7 kmh NE 9.8 mph15.8 kmh 29.57 in1001.4 mb 0.00 in0.0 mm 0.00 in0.0 mm 0.00 in0.0 mm